createdAt,value
2018-05-26T00:00:00.265Z,16.25
2018-05-26T00:02:27.828Z,16.21
2018-05-26T00:04:55.469Z,16.18
2018-05-26T00:07:23.713Z,16.19
2018-05-26T00:09:51.426Z,16.21
2018-05-26T00:12:19.083Z,16.22
2018-05-26T00:14:46.951Z,16.16
2018-05-26T00:17:15.615Z,16.16
2018-05-26T00:19:43.245Z,16.16
2018-05-26T00:22:10.970Z,16.14
2018-05-26T00:24:38.614Z,16.10
2018-05-26T00:27:06.283Z,16.14
2018-05-26T00:29:34.439Z,16.17
2018-05-26T00:32:02.016Z,16.23
2018-05-26T00:34:29.642Z,16.18
2018-05-26T00:36:57.333Z,16.18
2018-05-26T00:39:24.987Z,16.14
2018-05-26T00:41:52.620Z,16.17
2018-05-26T00:44:20.756Z,16.20
2018-05-26T00:46:48.356Z,16.19
2018-05-26T00:49:16.037Z,16.19
2018-05-26T00:51:44.176Z,16.16
2018-05-26T00:54:11.778Z,16.12
2018-05-26T00:56:39.380Z,16.07
2018-05-26T00:59:07.231Z,16.07
2018-05-26T01:01:34.894Z,16.06
2018-05-26T01:04:02.575Z,16.03
2018-05-26T01:06:30.289Z,16.02
2018-05-26T01:08:57.902Z,16.01
2018-05-26T01:11:25.574Z,15.98
2018-05-26T01:13:53.261Z,15.99
2018-05-26T01:16:20.857Z,15.99
2018-05-26T01:18:48.583Z,16.01
2018-05-26T01:21:16.461Z,16.00
2018-05-26T01:23:44.057Z,16.01
2018-05-26T01:26:11.734Z,16.09
2018-05-26T01:28:39.568Z,16.07
2018-05-26T01:31:07.265Z,16.07
2018-05-26T01:33:34.887Z,16.02
2018-05-26T01:36:02.736Z,16.00
2018-05-26T01:38:30.392Z,15.95
2018-05-26T01:40:58.068Z,15.87
2018-05-26T01:43:25.789Z,15.82
2018-05-26T01:45:53.410Z,15.74
2018-05-26T01:48:21.036Z,15.72
2018-05-26T01:50:48.916Z,15.75
2018-05-26T01:53:16.576Z,15.75
2018-05-26T01:55:44.240Z,15.75
2018-05-26T01:58:12.103Z,15.79
2018-05-26T02:00:39.733Z,15.78
2018-05-26T02:03:07.433Z,15.76
2018-05-26T02:05:35.180Z,15.76
2018-05-26T02:08:02.752Z,15.75
2018-05-26T02:10:30.395Z,15.74
2018-05-26T02:12:58.230Z,15.71
2018-05-26T02:15:25.919Z,15.71
2018-05-26T02:17:53.582Z,15.69
2018-05-26T02:20:21.285Z,15.68
2018-05-26T02:22:48.903Z,15.70
2018-05-26T02:25:16.534Z,15.74
2018-05-26T02:27:44.263Z,15.72
2018-05-26T02:30:11.901Z,15.73
2018-05-26T02:32:39.552Z,15.76
2018-05-26T02:35:07.247Z,15.78
2018-05-26T02:37:34.872Z,15.76
2018-05-26T02:40:02.499Z,15.76
2018-05-26T02:42:30.389Z,15.78
2018-05-26T02:44:58.026Z,15.74
2018-05-26T02:47:25.684Z,15.71
2018-05-26T02:49:53.421Z,15.73
2018-05-26T02:52:21.034Z,15.74
2018-05-26T02:54:48.648Z,15.78
2018-05-26T02:57:16.863Z,15.77
2018-05-26T02:59:44.457Z,15.79
2018-05-26T03:02:14.104Z,15.82
2018-05-26T03:04:47.814Z,15.91
2018-05-26T03:07:20.925Z,15.97
2018-05-26T03:09:54.322Z,16.06
2018-05-26T03:12:27.448Z,16.14
2018-05-26T03:14:55.040Z,16.20
2018-05-26T03:20:31.252Z,16.38
2018-05-26T03:22:58.881Z,16.45
2018-05-26T03:25:26.517Z,16.54
2018-05-26T03:27:54.349Z,16.66
2018-05-26T03:30:22.020Z,16.77
2018-05-26T03:32:49.707Z,16.87
2018-05-26T03:35:17.559Z,16.99
2018-05-26T03:37:45.951Z,17.16
2018-05-26T03:40:13.589Z,17.37
2018-05-26T03:42:41.195Z,17.55
2018-05-26T03:45:09.344Z,17.70
2018-05-26T03:47:36.933Z,17.95
2018-05-26T03:50:04.578Z,18.19
2018-05-26T03:52:32.330Z,18.46
2018-05-26T03:58:20.488Z,18.79
2018-05-26T04:00:48.065Z,19.01
2018-05-26T04:03:15.665Z,19.17
2018-05-26T04:05:43.518Z,19.33
2018-05-26T04:08:11.221Z,19.36
2018-05-26T04:10:38.850Z,19.32
2018-05-26T04:13:09.689Z,19.30
2018-05-26T04:15:37.711Z,19.44
2018-05-26T04:18:05.383Z,19.46
2018-05-26T04:20:33.046Z,19.60
2018-05-26T04:23:00.677Z,19.75
2018-05-26T04:25:28.316Z,19.93
2018-05-26T04:27:56.001Z,20.03
2018-05-26T04:30:23.665Z,20.30
2018-05-26T04:32:51.268Z,20.35
2018-05-26T04:35:19.156Z,20.41
2018-05-26T04:37:46.787Z,20.62
2018-05-26T04:40:14.455Z,20.74
2018-05-26T04:42:42.280Z,21.00
2018-05-26T04:45:09.965Z,21.14
2018-05-26T04:47:37.629Z,21.63
2018-05-26T04:50:05.346Z,21.73
2018-05-26T04:52:32.964Z,21.93
2018-05-26T04:55:00.611Z,21.84
2018-05-26T04:57:28.734Z,22.43
2018-05-26T04:59:56.328Z,22.22
2018-05-26T05:02:23.986Z,22.32
2018-05-26T05:04:51.874Z,22.59
2018-05-26T05:07:19.520Z,22.87
2018-05-26T05:09:47.171Z,23.12
2018-05-26T05:12:15.010Z,23.32
2018-05-26T05:14:42.691Z,23.83
2018-05-26T05:17:11.472Z,24.19
2018-05-26T05:19:39.089Z,24.47
2018-05-26T05:22:06.722Z,24.69
2018-05-26T05:24:34.415Z,24.56
2018-05-26T05:27:02.257Z,24.74
2018-05-26T05:29:31.074Z,24.65
2018-05-26T05:31:58.809Z,24.93
2018-05-26T05:34:26.889Z,24.91
2018-05-26T05:36:54.487Z,24.99
2018-05-26T05:39:22.211Z,24.99
2018-05-26T05:41:50.015Z,25.31
2018-05-26T05:44:17.680Z,25.53
2018-05-26T05:46:45.373Z,25.75
2018-05-26T05:49:13.032Z,25.88
2018-05-26T05:51:40.652Z,25.74
2018-05-26T05:54:08.306Z,25.91
2018-05-26T05:56:36.028Z,25.89
2018-05-26T05:59:03.633Z,25.75
2018-05-26T06:01:31.302Z,25.42
2018-05-26T06:03:59.467Z,25.18
2018-05-26T06:06:27.035Z,25.37
2018-05-26T06:08:54.904Z,24.96
2018-05-26T06:11:23.095Z,24.64
2018-05-26T06:13:50.666Z,24.13
2018-05-26T06:16:18.303Z,24.05
2018-05-26T06:18:45.975Z,23.86
2018-05-26T06:21:13.805Z,23.84
2018-05-26T06:23:41.460Z,24.00
2018-05-26T06:26:09.176Z,24.21
2018-05-26T06:28:36.758Z,24.23
2018-05-26T06:31:04.421Z,24.44
2018-05-26T06:33:32.621Z,24.34
2018-05-26T06:36:00.282Z,24.49
2018-05-26T06:38:27.844Z,24.60
2018-05-26T06:40:55.606Z,24.84
2018-05-26T06:43:23.180Z,24.97
2018-05-26T06:45:50.801Z,24.88
2018-05-26T06:48:18.501Z,24.99
2018-05-26T06:50:46.190Z,25.05
2018-05-26T06:53:13.823Z,25.14
2018-05-26T06:55:41.466Z,25.18
2018-05-26T06:58:09.088Z,25.20
2018-05-26T07:00:36.794Z,25.22
2018-05-26T07:03:04.636Z,25.41
2018-05-26T07:05:32.304Z,25.56
2018-05-26T07:07:59.945Z,25.37
2018-05-26T07:10:27.639Z,25.38
2018-05-26T07:12:55.256Z,25.62
2018-05-26T07:15:22.964Z,25.75
2018-05-26T07:17:50.627Z,26.00
2018-05-26T07:20:18.279Z,26.37
2018-05-26T07:22:45.927Z,26.50
2018-05-26T07:25:13.671Z,26.06
2018-05-26T07:27:41.236Z,26.51
2018-05-26T07:30:08.845Z,26.42
2018-05-26T07:32:36.718Z,26.14
2018-05-26T07:35:04.411Z,26.00
2018-05-26T07:37:32.098Z,25.96
2018-05-26T07:40:00.213Z,25.95
2018-05-26T07:42:27.801Z,25.87
2018-05-26T07:44:55.432Z,25.89
2018-05-26T07:47:23.301Z,26.05
2018-05-26T07:49:50.953Z,26.04
2018-05-26T07:52:18.596Z,26.15
2018-05-26T07:54:46.457Z,26.12
2018-05-26T07:57:14.127Z,25.84
2018-05-26T08:06:25.362Z,25.71
2018-05-26T08:08:52.961Z,25.91
2018-05-26T08:11:20.559Z,26.02
2018-05-26T08:13:48.738Z,26.23
2018-05-26T08:16:16.320Z,26.32
2018-05-26T08:18:43.978Z,26.28
2018-05-26T08:21:12.022Z,26.49
2018-05-26T08:23:39.665Z,26.58
2018-05-26T08:26:07.349Z,26.62
2018-05-26T08:28:35.026Z,26.95
2018-05-26T08:31:02.665Z,27.15
2018-05-26T08:33:30.304Z,27.40
2018-05-26T08:35:58.305Z,27.77
2018-05-26T08:38:25.890Z,27.76
2018-05-26T08:40:53.484Z,27.87
2018-05-26T08:43:21.202Z,27.93
2018-05-26T08:45:48.793Z,28.01
2018-05-26T08:48:16.488Z,28.18
2018-05-26T08:50:44.347Z,28.39
2018-05-26T08:53:12.016Z,28.66
2018-05-26T08:55:39.718Z,28.84
2018-05-26T08:58:07.500Z,28.59
2018-05-26T09:00:35.191Z,28.20
2018-05-26T09:03:02.852Z,28.16
2018-05-26T09:05:30.537Z,28.40
2018-05-26T09:07:58.154Z,28.67
2018-05-26T09:10:25.817Z,28.98
2018-05-26T09:12:53.543Z,29.37
2018-05-26T09:15:21.126Z,29.56
2018-05-26T09:17:48.812Z,29.41
2018-05-26T09:20:16.658Z,29.45
2018-05-26T09:22:44.295Z,29.32
2018-05-26T09:25:12.149Z,29.05
2018-05-26T09:27:39.903Z,28.73
2018-05-26T09:30:07.502Z,28.49
2018-05-26T09:32:35.199Z,28.61
2018-05-26T09:35:02.871Z,28.52
2018-05-26T09:37:30.615Z,28.75
2018-05-26T09:39:58.371Z,29.06
2018-05-26T09:42:26.229Z,29.14
2018-05-26T09:44:53.868Z,29.24
2018-05-26T09:47:21.501Z,29.15
2018-05-26T09:49:49.703Z,29.21
2018-05-26T09:52:17.358Z,29.37
2018-05-26T09:54:44.999Z,29.21
2018-05-26T09:57:13.290Z,29.35
2018-05-26T09:59:40.885Z,29.72
2018-05-26T10:02:08.556Z,29.76
2018-05-26T10:04:36.217Z,30.13
2018-05-26T10:07:03.833Z,30.30
2018-05-26T10:09:31.510Z,30.70
2018-05-26T10:11:59.181Z,31.15
2018-05-26T10:14:26.824Z,31.26
2018-05-26T10:16:54.450Z,30.90
2018-05-26T10:19:22.137Z,29.90
2018-05-26T10:21:49.759Z,29.43
2018-05-26T10:24:18.083Z,27.62
2018-05-26T10:26:46.534Z,25.04
2018-05-26T10:29:14.247Z,22.95
2018-05-26T10:31:41.832Z,21.66
2018-05-26T10:34:09.774Z,20.99
2018-05-26T10:36:37.432Z,20.65
2018-05-26T10:39:05.060Z,20.45
2018-05-26T10:41:32.883Z,20.32
2018-05-26T10:44:00.552Z,20.35
2018-05-26T10:46:29.198Z,20.28
2018-05-26T10:48:56.952Z,20.10
2018-05-26T10:51:24.559Z,20.00
2018-05-26T10:53:52.180Z,19.90
2018-05-26T10:56:19.892Z,20.00
2018-05-26T10:58:47.571Z,20.07
2018-05-26T11:01:15.273Z,20.21
2018-05-26T11:03:43.049Z,20.33
2018-05-26T11:06:10.708Z,20.34
2018-05-26T11:08:38.417Z,20.46
2018-05-26T11:11:06.089Z,20.59
2018-05-26T11:13:33.683Z,20.71
2018-05-26T11:16:01.397Z,20.79
2018-05-26T11:18:29.070Z,20.84
2018-05-26T11:20:56.665Z,20.92
2018-05-26T11:23:24.364Z,20.96
2018-05-26T11:25:52.100Z,20.95
2018-05-26T11:28:19.851Z,21.11
2018-05-26T11:30:47.491Z,21.11
2018-05-26T11:33:15.218Z,21.13
2018-05-26T11:35:42.841Z,21.28
2018-05-26T11:38:10.480Z,21.35
2018-05-26T11:40:38.168Z,21.43
2018-05-26T11:43:05.819Z,21.49
2018-05-26T11:45:33.445Z,21.53
2018-05-26T11:48:01.321Z,21.75
2018-05-26T11:50:28.993Z,21.65
2018-05-26T11:52:56.653Z,21.76
2018-05-26T11:55:24.328Z,21.98
2018-05-26T11:57:51.945Z,22.19
2018-05-26T12:00:19.696Z,22.42
2018-05-26T12:02:47.725Z,22.52
2018-05-26T12:05:15.348Z,22.57
2018-05-26T12:07:43.028Z,22.69
2018-05-26T12:10:10.913Z,22.86
2018-05-26T12:12:38.549Z,23.00
2018-05-26T12:15:06.254Z,23.10
2018-05-26T12:17:34.580Z,23.24
2018-05-26T12:20:02.160Z,23.38
2018-05-26T12:22:29.776Z,23.40
2018-05-26T12:24:57.959Z,23.44
2018-05-26T12:27:25.561Z,23.61
2018-05-26T12:29:53.131Z,23.74
2018-05-26T12:32:20.869Z,23.80
2018-05-26T12:34:48.439Z,23.80
2018-05-26T12:37:16.112Z,23.45
2018-05-26T12:39:43.886Z,23.35
2018-05-26T12:42:11.472Z,23.25
2018-05-26T12:44:39.138Z,23.25
2018-05-26T12:47:06.829Z,23.21
2018-05-26T12:49:34.431Z,23.28
2018-05-26T12:52:02.093Z,23.15
2018-05-26T12:54:29.803Z,23.26
2018-05-26T12:56:57.392Z,23.35
2018-05-26T12:59:25.073Z,23.43
2018-05-26T13:01:52.808Z,23.50
2018-05-26T13:04:20.394Z,23.60
2018-05-26T13:06:48.064Z,23.70
2018-05-26T13:09:15.760Z,23.70
2018-05-26T13:11:43.456Z,23.74
2018-05-26T13:14:12.113Z,23.78
2018-05-26T13:16:39.931Z,23.74
2018-05-26T13:19:07.552Z,23.79
2018-05-26T13:21:35.253Z,23.83
2018-05-26T13:24:03.268Z,23.94
2018-05-26T13:26:30.956Z,24.11
2018-05-26T13:28:58.647Z,24.27
2018-05-26T13:31:26.324Z,24.23
2018-05-26T13:33:53.963Z,24.20
2018-05-26T13:36:21.600Z,24.19
2018-05-26T13:38:49.290Z,24.28
2018-05-26T13:41:16.967Z,24.37
2018-05-26T13:43:44.581Z,24.42
2018-05-26T13:46:12.424Z,24.54
2018-05-26T13:48:40.082Z,24.64
2018-05-26T13:51:07.796Z,24.75
2018-05-26T13:53:35.541Z,24.82
2018-05-26T13:56:03.157Z,24.84
2018-05-26T13:58:30.732Z,24.89
2018-05-26T14:00:58.412Z,24.94
2018-05-26T14:03:26.061Z,24.89
2018-05-26T14:05:53.705Z,25.06
2018-05-26T14:08:21.567Z,25.08
2018-05-26T14:10:49.291Z,25.22
2018-05-26T14:13:16.876Z,25.30
2018-05-26T14:15:44.610Z,25.43
2018-05-26T14:18:12.232Z,25.46
2018-05-26T14:20:39.889Z,25.44
2018-05-26T14:23:08.036Z,25.41
2018-05-26T14:25:35.648Z,25.44
2018-05-26T14:28:03.337Z,25.45
2018-05-26T14:30:30.987Z,25.43
2018-05-26T14:32:58.580Z,25.48
2018-05-26T14:35:26.270Z,25.63
2018-05-26T14:37:53.949Z,25.65
2018-05-26T14:40:21.567Z,25.68
2018-05-26T14:42:49.211Z,25.66
2018-05-26T14:45:16.929Z,25.62
2018-05-26T14:47:44.573Z,25.67
2018-05-26T14:50:12.165Z,25.77
2018-05-26T14:52:40.055Z,25.80
2018-05-26T14:55:07.692Z,25.83
2018-05-26T14:57:35.408Z,25.78
2018-05-26T15:00:03.168Z,25.79
2018-05-26T15:02:30.904Z,25.87
2018-05-26T15:04:58.570Z,26.01
2018-05-26T15:07:26.273Z,26.22
2018-05-26T15:09:53.848Z,26.31
2018-05-26T15:12:21.539Z,26.32
2018-05-26T15:14:49.373Z,26.43
2018-05-26T15:17:17.034Z,26.44
2018-05-26T15:19:44.725Z,26.36
2018-05-26T15:22:12.372Z,26.32
2018-05-26T15:24:40.184Z,26.28
2018-05-26T15:27:07.905Z,26.20
2018-05-26T15:29:35.596Z,26.12
2018-05-26T15:32:03.209Z,26.06
2018-05-26T15:34:30.838Z,26.10
2018-05-26T15:36:58.720Z,26.12
2018-05-26T15:39:26.406Z,26.17
2018-05-26T15:41:54.062Z,26.19
2018-05-26T15:44:21.923Z,26.24
2018-05-26T15:46:49.504Z,26.30
2018-05-26T15:49:17.186Z,26.32
2018-05-26T15:51:45.291Z,26.35
2018-05-26T15:54:13.140Z,26.32
2018-05-26T15:56:40.870Z,26.36
2018-05-26T15:59:08.624Z,26.39
2018-05-26T16:01:36.192Z,26.42
2018-05-26T16:04:03.844Z,26.45
2018-05-26T16:06:31.680Z,26.44
2018-05-26T16:08:59.368Z,26.40
2018-05-26T16:11:27.008Z,26.36
2018-05-26T16:13:54.722Z,26.31
2018-05-26T16:16:22.312Z,26.32
2018-05-26T16:18:49.978Z,26.28
2018-05-26T16:21:17.681Z,26.15
2018-05-26T16:23:45.293Z,26.07
2018-05-26T16:26:12.965Z,26.00
2018-05-26T16:28:40.750Z,25.90
2018-05-26T16:31:08.345Z,25.77
2018-05-26T16:33:35.937Z,25.70
2018-05-26T16:36:03.655Z,25.60
2018-05-26T16:38:31.248Z,25.52
2018-05-26T16:40:58.921Z,25.44
2018-05-26T16:43:26.741Z,25.39
2018-05-26T16:45:54.460Z,25.34
2018-05-26T16:48:22.081Z,25.40
2018-05-26T16:50:50.229Z,25.52
2018-05-26T16:53:17.880Z,25.53
2018-05-26T16:55:45.477Z,25.62
2018-05-26T16:58:13.194Z,25.63
2018-05-26T17:00:40.843Z,25.58
2018-05-26T17:03:08.487Z,25.49
2018-05-26T17:05:36.332Z,25.44
2018-05-26T17:08:04.019Z,24.80
2018-05-26T17:10:31.595Z,24.69
2018-05-26T17:12:59.345Z,24.44
2018-05-26T17:15:26.951Z,24.19
2018-05-26T17:17:54.628Z,23.77
2018-05-26T17:20:22.835Z,23.14
2018-05-26T17:22:50.560Z,23.26
2018-05-26T17:25:18.193Z,23.24
2018-05-26T17:27:46.303Z,23.19
2018-05-26T17:30:13.952Z,23.15
2018-05-26T17:32:41.571Z,23.08
2018-05-26T17:35:09.408Z,22.98
2018-05-26T17:37:37.114Z,22.81
2018-05-26T17:40:04.828Z,22.73
2018-05-26T17:42:32.519Z,22.63
2018-05-26T17:45:00.091Z,22.51
2018-05-26T17:47:27.748Z,22.38
2018-05-26T17:49:55.498Z,22.27
2018-05-26T17:52:23.059Z,22.20
2018-05-26T17:54:50.737Z,22.11
2018-05-26T17:57:18.436Z,21.98
2018-05-26T17:59:46.098Z,21.91
2018-05-26T18:02:13.701Z,21.84
2018-05-26T18:04:41.568Z,21.80
2018-05-26T18:07:09.235Z,21.76
2018-05-26T18:09:36.891Z,21.73
2018-05-26T18:12:04.589Z,21.70
2018-05-26T18:14:32.188Z,21.63
2018-05-26T18:16:59.862Z,21.59
2018-05-26T18:19:27.754Z,21.49
2018-05-26T18:21:55.396Z,21.46
2018-05-26T18:24:23.052Z,21.36
2018-05-26T18:26:50.866Z,21.25
2018-05-26T18:29:18.592Z,21.15
2018-05-26T18:31:46.178Z,21.05
2018-05-26T18:34:14.366Z,20.98
2018-05-26T18:36:41.975Z,20.92
2018-05-26T18:39:09.608Z,20.84
2018-05-26T18:41:37.315Z,20.84
2018-05-26T18:44:04.960Z,20.83
2018-05-26T18:46:32.629Z,20.78
2018-05-26T18:49:00.756Z,20.73
2018-05-26T18:51:28.351Z,20.66
2018-05-26T18:53:55.998Z,20.62
2018-05-26T18:56:23.828Z,20.55
2018-05-26T18:58:51.540Z,20.47
2018-05-26T19:01:19.202Z,20.38
2018-05-26T19:03:46.859Z,20.33
2018-05-26T19:06:14.497Z,20.36
2018-05-26T19:08:42.153Z,20.28
2018-05-26T19:11:09.836Z,20.29
2018-05-26T19:13:37.473Z,20.29
2018-05-26T19:16:05.103Z,20.25
2018-05-26T19:18:32.830Z,20.21
2018-05-26T19:21:00.462Z,20.17
2018-05-26T19:23:28.088Z,20.13
2018-05-26T19:25:55.799Z,20.11
2018-05-26T19:28:23.393Z,20.08
2018-05-26T19:30:51.070Z,20.05
2018-05-26T19:33:19.065Z,20.03
2018-05-26T19:35:46.654Z,20.02
2018-05-26T19:38:14.251Z,20.09
2018-05-26T19:40:41.889Z,20.07
2018-05-26T19:43:09.507Z,20.07
2018-05-26T19:45:37.153Z,20.11
2018-05-26T19:48:05.133Z,20.15
2018-05-26T19:50:32.787Z,20.22
2018-05-26T19:53:00.401Z,20.36
2018-05-26T19:55:28.131Z,20.28
2018-05-26T19:57:55.773Z,20.22
2018-05-26T20:00:23.420Z,20.11
2018-05-26T20:02:51.283Z,20.05
2018-05-26T20:05:18.947Z,19.97
2018-05-26T20:07:46.661Z,19.91
2018-05-26T20:10:14.617Z,19.85
2018-05-26T20:12:42.208Z,19.81
2018-05-26T20:15:09.829Z,19.86
2018-05-26T20:17:37.709Z,19.87
2018-05-26T20:20:05.428Z,19.88
2018-05-26T20:22:33.055Z,19.89
2018-05-26T20:25:01.253Z,19.91
2018-05-26T20:27:28.844Z,19.92
2018-05-26T20:29:56.559Z,20.17
2018-05-26T20:32:24.570Z,20.43
2018-05-26T20:34:52.246Z,20.54
2018-05-26T20:37:20.058Z,20.59
2018-05-26T20:39:48.114Z,20.65
2018-05-26T20:42:15.716Z,20.63
2018-05-26T20:44:43.299Z,20.55
2018-05-26T20:47:11.182Z,20.49
2018-05-26T20:49:38.828Z,20.51
2018-05-26T20:52:06.500Z,20.50
2018-05-26T20:54:34.222Z,20.42
2018-05-26T20:57:01.819Z,20.37
2018-05-26T20:59:29.510Z,20.31
2018-05-26T21:01:57.310Z,20.34
2018-05-26T21:04:31.045Z,20.39
2018-05-26T21:06:58.654Z,20.26
2018-05-26T21:09:26.272Z,20.20
2018-05-26T21:11:53.931Z,20.25
2018-05-26T21:14:21.768Z,20.16
2018-05-26T21:16:49.441Z,20.11
2018-05-26T21:19:17.137Z,20.22
2018-05-26T21:21:45.273Z,20.25
2018-05-26T21:24:12.859Z,20.31
2018-05-26T21:26:40.489Z,20.21
2018-05-26T21:29:08.498Z,20.28
2018-05-26T21:31:36.076Z,20.37
2018-05-26T21:34:03.690Z,20.34
2018-05-26T21:36:31.836Z,20.01
2018-05-26T21:38:59.434Z,19.71
2018-05-26T21:41:27.119Z,19.48
2018-05-26T21:43:54.755Z,19.32
2018-05-26T21:46:22.387Z,19.28
2018-05-26T21:48:50.075Z,19.27
2018-05-26T21:51:17.743Z,19.27
2018-05-26T21:53:45.400Z,19.11
2018-05-26T21:56:13.015Z,18.98
2018-05-26T21:58:40.719Z,18.93
2018-05-26T22:01:08.301Z,19.02
2018-05-26T22:03:35.984Z,19.07
2018-05-26T22:06:03.763Z,19.11
2018-05-26T22:08:31.320Z,18.97
2018-05-26T22:10:58.996Z,18.98
2018-05-26T22:13:27.042Z,18.90
2018-05-26T22:15:54.746Z,19.03
2018-05-26T22:18:22.440Z,19.07
2018-05-26T22:20:50.097Z,19.04
2018-05-26T22:23:17.706Z,19.00
2018-05-26T22:25:45.383Z,18.92
2018-05-26T22:28:13.067Z,18.99
2018-05-26T22:30:40.663Z,18.95
2018-05-26T22:33:08.328Z,18.85
2018-05-26T22:35:36.310Z,18.76
2018-05-26T22:38:04.078Z,18.75
2018-05-26T22:40:31.731Z,18.73
2018-05-26T22:42:59.412Z,18.69
2018-05-26T22:45:27.050Z,18.67
2018-05-26T22:47:54.716Z,18.58
2018-05-26T22:50:22.548Z,18.53
2018-05-26T22:52:50.192Z,18.47
2018-05-26T22:55:17.906Z,18.43
2018-05-26T22:57:45.703Z,18.37
2018-05-26T23:00:13.477Z,18.33
2018-05-26T23:02:41.074Z,18.28
2018-05-26T23:05:08.907Z,18.27
2018-05-26T23:07:36.549Z,18.32
2018-05-26T23:10:04.338Z,18.32
2018-05-26T23:12:31.972Z,18.32
2018-05-26T23:14:59.612Z,18.34
2018-05-26T23:17:27.200Z,18.33
2018-05-26T23:19:55.418Z,18.35
2018-05-26T23:22:23.160Z,18.35
2018-05-26T23:24:50.800Z,18.29
2018-05-26T23:27:18.519Z,18.26
2018-05-26T23:29:46.126Z,18.17
2018-05-26T23:32:13.785Z,18.12
2018-05-26T23:34:41.493Z,18.09
2018-05-26T23:37:09.114Z,18.03
2018-05-26T23:39:36.703Z,18.03
2018-05-26T23:42:04.383Z,17.99
2018-05-26T23:44:32.212Z,17.94
2018-05-26T23:46:59.870Z,17.97
2018-05-26T23:49:27.880Z,18.04
2018-05-26T23:51:55.579Z,18.01
2018-05-26T23:54:23.269Z,17.97
2018-05-26T23:56:50.955Z,17.94
2018-05-26T23:59:18.557Z,17.93
